sensor_id;sensor_type;location;lat;lon;timestamp;pressure;altitude;pressure_sealevel;temperature;humidity
28456;BME280;15682;56.742;38.866;2022-07-23T00:00:38;99510.0;;;15.5;91.4
28456;BME280;15682;56.742;38.866;2022-07-23T00:02:38;99510.0;;;15.5;91.4
28456;BME280;15682;56.742;38.866;2022-07-23T00:04:38;99510.0;;;15.5;91.5
28456;BME280;15682;56.742;38.866;2022-07-23T00:06:39;99510.0;;;15.4;92.3
28456;BME280;15682;56.742;38.866;2022-07-23T00:08:39;99520.0;;;15.4;93.1
28456;BME280;15682;56.742;38.866;2022-07-23T00:10:39;99520.0;;;15.4;91.7
28456;BME280;15682;56.742;38.866;2022-07-23T00:12:40;99520.0;;;15.4;91.7
28456;BME280;15682;56.742;38.866;2022-07-23T00:14:40;99520.0;;;15.2;91.7
28456;BME280;15682;56.742;38.866;2022-07-23T00:16:40;99520.0;;;15.2;91.7
28456;BME280;15682;56.742;38.866;2022-07-23T00:18:40;99520.0;;;15.1;92.6
28456;BME280;15682;56.742;38.866;2022-07-23T00:20:40;99520.0;;;15.1;92.6
28456;BME280;15682;56.742;38.866;2022-07-23T00:22:46;99520.0;;;15.2;91.7
28456;BME280;15682;56.742;38.866;2022-07-23T00:24:41;99520.0;;;15.3;91.7
28456;BME280;15682;56.742;38.866;2022-07-23T00:26:41;99520.0;;;15.3;91.1
28456;BME280;15682;56.742;38.866;2022-07-23T00:28:43;99520.0;;;15.4;91.1
28456;BME280;15682;56.742;38.866;2022-07-23T00:30:42;99520.0;;;15.4;91.1
28456;BME280;15682;56.742;38.866;2022-07-23T00:32:47;99520.0;;;15.4;91.1
28456;BME280;15682;56.742;38.866;2022-07-23T00:34:42;99520.0;;;15.3;91.4
28456;BME280;15682;56.742;38.866;2022-07-23T00:36:43;99520.0;;;15.3;91.4
28456;BME280;15682;56.742;38.866;2022-07-23T00:38:43;99520.0;;;15.1;91.8
28456;BME280;15682;56.742;38.866;2022-07-23T00:40:43;99520.0;;;15.1;92.3
28456;BME280;15682;56.742;38.866;2022-07-23T00:42:44;99520.0;;;15.2;91.7
28456;BME280;15682;56.742;38.866;2022-07-23T00:44:43;99520.0;;;15.1;91.7
28456;BME280;15682;56.742;38.866;2022-07-23T00:46:46;99520.0;;;15.0;91.7
28456;BME280;15682;56.742;38.866;2022-07-23T00:48:44;99520.0;;;15.0;91.7
28456;BME280;15682;56.742;38.866;2022-07-23T00:50:44;99520.0;;;15.0;91.7
28456;BME280;15682;56.742;38.866;2022-07-23T00:52:46;99530.0;;;14.9;92.4
28456;BME280;15682;56.742;38.866;2022-07-23T00:54:45;99530.0;;;14.9;92.3
28456;BME280;15682;56.742;38.866;2022-07-23T00:56:46;99530.0;;;14.9;92.3
28456;BME280;15682;56.742;38.866;2022-07-23T00:58:46;99530.0;;;14.8;92.3
28456;BME280;15682;56.742;38.866;2022-07-23T01:00:46;99530.0;;;14.8;91.8
28456;BME280;15682;56.742;38.866;2022-07-23T01:02:46;99530.0;;;14.8;92.7
28456;BME280;15682;56.742;38.866;2022-07-23T01:04:46;99530.0;;;14.9;92.7
28456;BME280;15682;56.742;38.866;2022-07-23T01:06:46;99530.0;;;14.9;92.7
28456;BME280;15682;56.742;38.866;2022-07-23T01:08:47;99530.0;;;14.9;91.9
28456;BME280;15682;56.742;38.866;2022-07-23T01:10:47;99530.0;;;14.7;91.9
28456;BME280;15682;56.742;38.866;2022-07-23T01:12:47;99530.0;;;14.7;92.5
28456;BME280;15682;56.742;38.866;2022-07-23T01:14:54;99530.0;;;14.6;92.6
28456;BME280;15682;56.742;38.866;2022-07-23T01:16:48;99530.0;;;14.6;92.6
28456;BME280;15682;56.742;38.866;2022-07-23T01:18:48;99530.0;;;14.6;92.6
28456;BME280;15682;56.742;38.866;2022-07-23T01:20:48;99530.0;;;14.6;93.2
28456;BME280;15682;56.742;38.866;2022-07-23T01:22:48;99530.0;;;14.6;93.2
28456;BME280;15682;56.742;38.866;2022-07-23T01:24:49;99530.0;;;14.8;92.6
28456;BME280;15682;56.742;38.866;2022-07-23T01:26:50;99530.0;;;14.8;92.6
28456;BME280;15682;56.742;38.866;2022-07-23T01:28:49;99530.0;;;14.8;92.6
28456;BME280;15682;56.742;38.866;2022-07-23T01:30:49;99530.0;;;14.8;92.6
28456;BME280;15682;56.742;38.866;2022-07-23T01:32:50;99530.0;;;14.9;92.5
28456;BME280;15682;56.742;38.866;2022-07-23T01:34:50;99530.0;;;14.9;92.5
28456;BME280;15682;56.742;38.866;2022-07-23T01:36:50;99530.0;;;14.9;92.5
28456;BME280;15682;56.742;38.866;2022-07-23T01:38:50;99530.0;;;14.9;92.5
28456;BME280;15682;56.742;38.866;2022-07-23T01:40:51;99530.0;;;14.9;92.5
28456;BME280;15682;56.742;38.866;2022-07-23T01:42:51;99530.0;;;14.9;92.5
28456;BME280;15682;56.742;38.866;2022-07-23T01:44:51;99520.0;;;14.9;92.9
28456;BME280;15682;56.742;38.866;2022-07-23T01:46:51;99520.0;;;14.9;91.6
28456;BME280;15682;56.742;38.866;2022-07-23T01:48:52;99520.0;;;14.9;92.4
28456;BME280;15682;56.742;38.866;2022-07-23T01:50:52;99520.0;;;15.1;91.1
28456;BME280;15682;56.742;38.866;2022-07-23T01:52:52;99520.0;;;15.1;91.7
28456;BME280;15682;56.742;38.866;2022-07-23T01:54:52;99520.0;;;15.0;91.5
28456;BME280;15682;56.742;38.866;2022-07-23T01:56:53;99520.0;;;14.9;91.5
28456;BME280;15682;56.742;38.866;2022-07-23T01:58:53;99520.0;;;14.9;91.5
28456;BME280;15682;56.742;38.866;2022-07-23T02:00:53;99520.0;;;15.1;91.1
28456;BME280;15682;56.742;38.866;2022-07-23T02:02:53;99520.0;;;15.1;91.1
28456;BME280;15682;56.742;38.866;2022-07-23T02:04:54;99520.0;;;15.0;90.6
28456;BME280;15682;56.742;38.866;2022-07-23T02:06:54;99520.0;;;15.0;90.6
28456;BME280;15682;56.742;38.866;2022-07-23T02:08:54;99520.0;;;15.0;91.7
28456;BME280;15682;56.742;38.866;2022-07-23T02:10:54;99520.0;;;15.0;91.2
28456;BME280;15682;56.742;38.866;2022-07-23T02:12:55;99520.0;;;15.2;91.2
28456;BME280;15682;56.742;38.866;2022-07-23T02:14:55;99520.0;;;15.2;91.0
28456;BME280;15682;56.742;38.866;2022-07-23T02:16:55;99520.0;;;15.2;90.6
28456;BME280;15682;56.742;38.866;2022-07-23T02:18:55;99520.0;;;15.2;90.6
28456;BME280;15682;56.742;38.866;2022-07-23T02:20:56;99520.0;;;15.2;90.6
28456;BME280;15682;56.742;38.866;2022-07-23T02:22:56;99520.0;;;15.3;90.1
28456;BME280;15682;56.742;38.866;2022-07-23T02:24:56;99520.0;;;15.3;90.1
28456;BME280;15682;56.742;38.866;2022-07-23T02:26:56;99520.0;;;15.3;90.1
28456;BME280;15682;56.742;38.866;2022-07-23T02:28:57;99520.0;;;15.6;89.1
28456;BME280;15682;56.742;38.866;2022-07-23T02:30:57;99520.0;;;15.8;89.1
28456;BME280;15682;56.742;38.866;2022-07-23T02:32:57;99520.0;;;15.8;88.4
28456;BME280;15682;56.742;38.866;2022-07-23T02:34:58;99520.0;;;15.8;89.0
28456;BME280;15682;56.742;38.866;2022-07-23T02:36:58;99520.0;;;15.8;89.2
28456;BME280;15682;56.742;38.866;2022-07-23T02:38:58;99520.0;;;15.8;89.2
28456;BME280;15682;56.742;38.866;2022-07-23T02:40:58;99520.0;;;15.9;88.4
28456;BME280;15682;56.742;38.866;2022-07-23T02:42:59;99520.0;;;15.9;87.7
28456;BME280;15682;56.742;38.866;2022-07-23T02:44:59;99520.0;;;16.2;87.1
28456;BME280;15682;56.742;38.866;2022-07-23T02:46:59;99520.0;;;16.2;87.1
28456;BME280;15682;56.742;38.866;2022-07-23T02:49:00;99520.0;;;16.0;87.1
28456;BME280;15682;56.742;38.866;2022-07-23T02:51:00;99520.0;;;16.2;87.1
28456;BME280;15682;56.742;38.866;2022-07-23T02:53:00;99520.0;;;16.2;87.1
28456;BME280;15682;56.742;38.866;2022-07-23T02:55:00;99520.0;;;16.2;87.2
28456;BME280;15682;56.742;38.866;2022-07-23T02:57:00;99520.0;;;16.3;87.2
28456;BME280;15682;56.742;38.866;2022-07-23T02:59:01;99520.0;;;16.3;87.2
28456;BME280;15682;56.742;38.866;2022-07-23T03:01:01;99520.0;;;16.4;87.2
28456;BME280;15682;56.742;38.866;2022-07-23T03:03:01;99520.0;;;16.4;86.4
28456;BME280;15682;56.742;38.866;2022-07-23T03:05:02;99520.0;;;16.6;85.7
28456;BME280;15682;56.742;38.866;2022-07-23T03:07:02;99520.0;;;16.6;85.7
28456;BME280;15682;56.742;38.866;2022-07-23T03:09:03;99520.0;;;16.6;85.7
28456;BME280;15682;56.742;38.866;2022-07-23T03:11:02;99520.0;;;16.7;85.0
28456;BME280;15682;56.742;38.866;2022-07-23T03:13:03;99520.0;;;16.8;85.0
28456;BME280;15682;56.742;38.866;2022-07-23T03:15:04;99520.0;;;17.1;84.5
28456;BME280;15682;56.742;38.866;2022-07-23T03:17:03;99520.0;;;17.1;83.5
28456;BME280;15682;56.742;38.866;2022-07-23T03:19:04;99520.0;;;17.1;82.0
28456;BME280;15682;56.742;38.866;2022-07-23T03:21:04;99520.0;;;17.2;82.4
28456;BME280;15682;56.742;38.866;2022-07-23T03:23:04;99520.0;;;17.2;83.5
28456;BME280;15682;56.742;38.866;2022-07-23T03:25:06;99520.0;;;17.6;84.9
28456;BME280;15682;56.742;38.866;2022-07-23T03:27:05;99520.0;;;17.7;84.3
28456;BME280;15682;56.742;38.866;2022-07-23T03:29:05;99520.0;;;17.8;84.6
28456;BME280;15682;56.742;38.866;2022-07-23T03:31:06;99520.0;;;18.0;84.6
28456;BME280;15682;56.742;38.866;2022-07-23T03:33:06;99520.0;;;18.1;84.6
28456;BME280;15682;56.742;38.866;2022-07-23T03:35:07;99520.0;;;18.3;83.7
28456;BME280;15682;56.742;38.866;2022-07-23T03:37:07;99520.0;;;18.3;83.7
28456;BME280;15682;56.742;38.866;2022-07-23T03:39:07;99520.0;;;18.5;82.9
28456;BME280;15682;56.742;38.866;2022-07-23T03:41:07;99520.0;;;18.6;82.9
28456;BME280;15682;56.742;38.866;2022-07-23T03:43:08;99520.0;;;18.6;82.9
28456;BME280;15682;56.742;38.866;2022-07-23T03:45:09;99520.0;;;18.6;82.9
28456;BME280;15682;56.742;38.866;2022-07-23T03:47:08;99520.0;;;18.6;82.9
28456;BME280;15682;56.742;38.866;2022-07-23T03:49:09;99520.0;;;18.6;82.4
28456;BME280;15682;56.742;38.866;2022-07-23T03:51:09;99520.0;;;18.7;82.4
28456;BME280;15682;56.742;38.866;2022-07-23T03:53:10;99520.0;;;18.8;82.4
28456;BME280;15682;56.742;38.866;2022-07-23T03:55:10;99530.0;;;18.9;81.6
28456;BME280;15682;56.742;38.866;2022-07-23T03:57:11;99530.0;;;18.9;81.6
28456;BME280;15682;56.742;38.866;2022-07-23T03:59:11;99530.0;;;19.0;81.1
28456;BME280;15682;56.742;38.866;2022-07-23T04:01:12;99530.0;;;19.0;81.1
28456;BME280;15682;56.742;38.866;2022-07-23T04:03:12;99530.0;;;19.0;81.1
28456;BME280;15682;56.742;38.866;2022-07-23T04:05:13;99530.0;;;19.0;80.4
28456;BME280;15682;56.742;38.866;2022-07-23T04:07:14;99530.0;;;19.0;80.4
28456;BME280;15682;56.742;38.866;2022-07-23T04:09:14;99530.0;;;19.0;80.7
28456;BME280;15682;56.742;38.866;2022-07-23T04:11:14;99530.0;;;19.1;80.7
28456;BME280;15682;56.742;38.866;2022-07-23T04:13:15;99530.0;;;19.0;80.7
28456;BME280;15682;56.742;38.866;2022-07-23T04:15:15;99530.0;;;19.0;80.7
28456;BME280;15682;56.742;38.866;2022-07-23T04:17:16;99530.0;;;19.0;80.7
28456;BME280;15682;56.742;38.866;2022-07-23T04:19:17;99530.0;;;19.2;79.8
28456;BME280;15682;56.742;38.866;2022-07-23T04:21:17;99530.0;;;19.2;79.8
28456;BME280;15682;56.742;38.866;2022-07-23T04:23:18;99530.0;;;19.2;79.8
28456;BME280;15682;56.742;38.866;2022-07-23T04:25:18;99530.0;;;19.3;79.2
28456;BME280;15682;56.742;38.866;2022-07-23T04:27:19;99530.0;;;19.4;78.5
28456;BME280;15682;56.742;38.866;2022-07-23T04:29:20;99530.0;;;19.4;78.6
28456;BME280;15682;56.742;38.866;2022-07-23T04:31:20;99530.0;;;19.5;79.3
28456;BME280;15682;56.742;38.866;2022-07-23T04:33:21;99530.0;;;19.6;79.3
28456;BME280;15682;56.742;38.866;2022-07-23T04:35:22;99530.0;;;19.6;79.3
28456;BME280;15682;56.742;38.866;2022-07-23T04:37:22;99530.0;;;19.6;78.4
28456;BME280;15682;56.742;38.866;2022-07-23T04:39:23;99530.0;;;19.7;78.4
28456;BME280;15682;56.742;38.866;2022-07-23T04:41:23;99530.0;;;19.7;78.4
28456;BME280;15682;56.742;38.866;2022-07-23T04:43:24;99530.0;;;19.7;78.4
28456;BME280;15682;56.742;38.866;2022-07-23T04:45:25;99530.0;;;19.8;77.7
28456;BME280;15682;56.742;38.866;2022-07-23T04:47:25;99530.0;;;19.8;77.2
28456;BME280;15682;56.742;38.866;2022-07-23T04:49:26;99530.0;;;19.8;76.3
28456;BME280;15682;56.742;38.866;2022-07-23T04:51:27;99530.0;;;19.7;76.3
28456;BME280;15682;56.742;38.866;2022-07-23T04:53:28;99530.0;;;19.7;77.0
28456;BME280;15682;56.742;38.866;2022-07-23T04:55:28;99530.0;;;19.7;76.0
28456;BME280;15682;56.742;38.866;2022-07-23T04:57:29;99530.0;;;19.9;76.0
28456;BME280;15682;56.742;38.866;2022-07-23T04:59:29;99530.0;;;19.9;76.6
28456;BME280;15682;56.742;38.866;2022-07-23T05:01:30;99530.0;;;19.8;75.8
28456;BME280;15682;56.742;38.866;2022-07-23T05:03:30;99530.0;;;19.8;75.8
28456;BME280;15682;56.742;38.866;2022-07-23T05:05:31;99530.0;;;19.8;75.8
28456;BME280;15682;56.742;38.866;2022-07-23T05:07:31;99530.0;;;20.0;75.8
28456;BME280;15682;56.742;38.866;2022-07-23T05:09:32;99530.0;;;20.0;75.1
28456;BME280;15682;56.742;38.866;2022-07-23T05:11:33;99530.0;;;20.2;75.1
28456;BME280;15682;56.742;38.866;2022-07-23T05:13:33;99530.0;;;20.2;75.1
28456;BME280;15682;56.742;38.866;2022-07-23T05:15:34;99530.0;;;20.3;74.2
28456;BME280;15682;56.742;38.866;2022-07-23T05:17:34;99530.0;;;20.4;74.2
28456;BME280;15682;56.742;38.866;2022-07-23T05:19:35;99530.0;;;20.4;73.1
28456;BME280;15682;56.742;38.866;2022-07-23T05:21:35;99530.0;;;20.8;72.3
28456;BME280;15682;56.742;38.866;2022-07-23T05:23:36;99530.0;;;20.8;72.3
28456;BME280;15682;56.742;38.866;2022-07-23T05:25:37;99530.0;;;20.8;72.3
28456;BME280;15682;56.742;38.866;2022-07-23T05:27:37;99530.0;;;20.8;71.1
28456;BME280;15682;56.742;38.866;2022-07-23T05:29:38;99530.0;;;20.9;70.8
28456;BME280;15682;56.742;38.866;2022-07-23T05:31:39;99530.0;;;21.1;70.8
28456;BME280;15682;56.742;38.866;2022-07-23T05:33:39;99530.0;;;21.2;70.8
28456;BME280;15682;56.742;38.866;2022-07-23T05:35:40;99530.0;;;21.2;69.2
28456;BME280;15682;56.742;38.866;2022-07-23T05:37:40;99530.0;;;21.2;70.1
28456;BME280;15682;56.742;38.866;2022-07-23T05:39:41;99530.0;;;21.4;69.5
28456;BME280;15682;56.742;38.866;2022-07-23T05:41:42;99530.0;;;21.4;68.2
28456;BME280;15682;56.742;38.866;2022-07-23T05:43:43;99530.0;;;21.4;69.1
28456;BME280;15682;56.742;38.866;2022-07-23T05:45:43;99530.0;;;21.5;69.1
28456;BME280;15682;56.742;38.866;2022-07-23T05:47:45;99530.0;;;21.7;68.3
28456;BME280;15682;56.742;38.866;2022-07-23T05:49:45;99530.0;;;21.8;67.9
28456;BME280;15682;56.742;38.866;2022-07-23T05:51:45;99530.0;;;21.7;69.0
28456;BME280;15682;56.742;38.866;2022-07-23T05:53:46;99530.0;;;21.7;69.5
28456;BME280;15682;56.742;38.866;2022-07-23T05:55:47;99520.0;;;21.7;68.5
28456;BME280;15682;56.742;38.866;2022-07-23T05:57:47;99520.0;;;22.0;68.5
28456;BME280;15682;56.742;38.866;2022-07-23T05:59:48;99520.0;;;22.0;67.3
28456;BME280;15682;56.742;38.866;2022-07-23T06:01:49;99520.0;;;22.1;67.3
28456;BME280;15682;56.742;38.866;2022-07-23T06:03:49;99520.0;;;22.2;67.3
28456;BME280;15682;56.742;38.866;2022-07-23T06:05:23;99520.0;;;22.2;67.1
28456;BME280;15682;56.742;38.866;2022-07-23T06:05:51;99520.0;;;22.2;67.1
28456;BME280;15682;56.742;38.866;2022-07-23T06:07:51;99520.0;;;22.2;67.1
28456;BME280;15682;56.742;38.866;2022-07-23T06:09:52;99520.0;;;22.4;67.3
28456;BME280;15682;56.742;38.866;2022-07-23T06:11:52;99510.0;;;22.4;67.3
28456;BME280;15682;56.742;38.866;2022-07-23T06:13:53;99510.0;;;22.5;67.0
28456;BME280;15682;56.742;38.866;2022-07-23T06:15:32;99510.0;;;22.5;66.2
28456;BME280;15682;56.742;38.866;2022-07-23T06:15:35;99510.0;;;22.5;66.2
28456;BME280;15682;56.742;38.866;2022-07-23T06:15:55;99510.0;;;22.5;66.2
28456;BME280;15682;56.742;38.866;2022-07-23T06:16:17;99510.0;;;22.5;66.8
28456;BME280;15682;56.742;38.866;2022-07-23T06:16:26;99510.0;;;22.5;66.8
28456;BME280;15682;56.742;38.866;2022-07-23T06:17:31;99510.0;;;22.5;66.8
28456;BME280;15682;56.742;38.866;2022-07-23T06:17:40;99510.0;;;22.5;66.8
28456;BME280;15682;56.742;38.866;2022-07-23T06:17:57;99510.0;;;22.5;66.8
28456;BME280;15682;56.742;38.866;2022-07-23T06:17:59;99510.0;;;22.6;66.8
28456;BME280;15682;56.742;38.866;2022-07-23T06:19:56;99510.0;;;22.8;66.1
28456;BME280;15682;56.742;38.866;2022-07-23T06:21:56;99510.0;;;22.9;65.4
28456;BME280;15682;56.742;38.866;2022-07-23T06:23:56;99510.0;;;22.9;64.5
28456;BME280;15682;56.742;38.866;2022-07-23T06:25:57;99510.0;;;22.9;65.3
28456;BME280;15682;56.742;38.866;2022-07-23T06:27:58;99510.0;;;23.0;64.7
28456;BME280;15682;56.742;38.866;2022-07-23T06:29:59;99510.0;;;23.0;65.2
28456;BME280;15682;56.742;38.866;2022-07-23T06:32:00;99510.0;;;23.2;65.2
28456;BME280;15682;56.742;38.866;2022-07-23T06:34:00;99510.0;;;23.2;65.2
28456;BME280;15682;56.742;38.866;2022-07-23T06:36:01;99510.0;;;23.2;64.4
28456;BME280;15682;56.742;38.866;2022-07-23T06:38:02;99510.0;;;23.3;64.4
28456;BME280;15682;56.742;38.866;2022-07-23T06:40:03;99500.0;;;23.5;64.3
28456;BME280;15682;56.742;38.866;2022-07-23T06:42:03;99500.0;;;23.6;64.3
28456;BME280;15682;56.742;38.866;2022-07-23T06:44:04;99500.0;;;23.6;63.4
28456;BME280;15682;56.742;38.866;2022-07-23T06:46:05;99500.0;;;23.6;64.0
28456;BME280;15682;56.742;38.866;2022-07-23T06:48:05;99500.0;;;23.6;64.0
28456;BME280;15682;56.742;38.866;2022-07-23T06:50:07;99500.0;;;23.7;62.4
28456;BME280;15682;56.742;38.866;2022-07-23T06:52:07;99500.0;;;23.8;62.4
28456;BME280;15682;56.742;38.866;2022-07-23T06:54:08;99500.0;;;23.9;62.4
28456;BME280;15682;56.742;38.866;2022-07-23T06:56:09;99500.0;;;23.9;62.4
28456;BME280;15682;56.742;38.866;2022-07-23T06:58:09;99490.0;;;24.1;61.8
28456;BME280;15682;56.742;38.866;2022-07-23T07:00:11;99490.0;;;24.2;62.6
28456;BME280;15682;56.742;38.866;2022-07-23T07:02:11;99490.0;;;24.3;61.3
28456;BME280;15682;56.742;38.866;2022-07-23T07:04:12;99490.0;;;24.3;61.3
28456;BME280;15682;56.742;38.866;2022-07-23T07:06:12;99490.0;;;24.5;61.3
28456;BME280;15682;56.742;38.866;2022-07-23T07:08:13;99490.0;;;24.5;61.8
28456;BME280;15682;56.742;38.866;2022-07-23T07:10:13;99490.0;;;24.3;61.8
28456;BME280;15682;56.742;38.866;2022-07-23T07:12:14;99490.0;;;24.5;61.1
28456;BME280;15682;56.742;38.866;2022-07-23T07:14:15;99490.0;;;24.6;61.1
28456;BME280;15682;56.742;38.866;2022-07-23T07:16:16;99490.0;;;24.8;61.1
28456;BME280;15682;56.742;38.866;2022-07-23T07:18:17;99490.0;;;24.9;61.1
28456;BME280;15682;56.742;38.866;2022-07-23T07:20:17;99490.0;;;24.9;60.0
28456;BME280;15682;56.742;38.866;2022-07-23T07:22:18;99490.0;;;25.0;60.0
28456;BME280;15682;56.742;38.866;2022-07-23T07:24:19;99490.0;;;25.0;60.1
28456;BME280;15682;56.742;38.866;2022-07-23T07:26:19;99490.0;;;25.0;59.1
28456;BME280;15682;56.742;38.866;2022-07-23T07:28:20;99490.0;;;25.0;59.1
28456;BME280;15682;56.742;38.866;2022-07-23T07:30:21;99490.0;;;25.0;59.7
28456;BME280;15682;56.742;38.866;2022-07-23T07:32:22;99480.0;;;25.2;60.3
28456;BME280;15682;56.742;38.866;2022-07-23T07:34:22;99480.0;;;25.4;59.8
28456;BME280;15682;56.742;38.866;2022-07-23T07:36:23;99480.0;;;25.4;58.5
28456;BME280;15682;56.742;38.866;2022-07-23T07:38:24;99480.0;;;25.5;57.8
28456;BME280;15682;56.742;38.866;2022-07-23T07:40:25;99480.0;;;25.5;58.0
28456;BME280;15682;56.742;38.866;2022-07-23T07:42:25;99480.0;;;25.7;58.6
28456;BME280;15682;56.742;38.866;2022-07-23T07:44:26;99480.0;;;25.5;57.7
28456;BME280;15682;56.742;38.866;2022-07-23T07:46:27;99480.0;;;25.7;57.7
28456;BME280;15682;56.742;38.866;2022-07-23T07:48:27;99480.0;;;25.7;57.7
28456;BME280;15682;56.742;38.866;2022-07-23T07:50:28;99480.0;;;25.8;56.9
28456;BME280;15682;56.742;38.866;2022-07-23T07:52:29;99480.0;;;25.8;56.9
28456;BME280;15682;56.742;38.866;2022-07-23T07:54:29;99480.0;;;25.9;55.6
28456;BME280;15682;56.742;38.866;2022-07-23T07:56:30;99480.0;;;25.9;55.6
28456;BME280;15682;56.742;38.866;2022-07-23T07:58:31;99480.0;;;26.1;56.3
28456;BME280;15682;56.742;38.866;2022-07-23T08:00:31;99480.0;;;26.1;55.0
28456;BME280;15682;56.742;38.866;2022-07-23T08:02:40;99480.0;;;26.2;55.0
28456;BME280;15682;56.742;38.866;2022-07-23T08:04:33;99480.0;;;26.2;55.0
28456;BME280;15682;56.742;38.866;2022-07-23T08:06:33;99480.0;;;26.2;55.0
28456;BME280;15682;56.742;38.866;2022-07-23T08:08:34;99480.0;;;26.4;55.0
28456;BME280;15682;56.742;38.866;2022-07-23T08:10:35;99480.0;;;26.5;53.8
28456;BME280;15682;56.742;38.866;2022-07-23T08:12:40;99480.0;;;26.5;53.1
28456;BME280;15682;56.742;38.866;2022-07-23T08:14:36;99480.0;;;26.7;53.7
28456;BME280;15682;56.742;38.866;2022-07-23T08:16:37;99470.0;;;26.8;52.9
28456;BME280;15682;56.742;38.866;2022-07-23T08:18:37;99470.0;;;26.8;52.9
28456;BME280;15682;56.742;38.866;2022-07-23T08:20:38;99470.0;;;26.9;51.8
28456;BME280;15682;56.742;38.866;2022-07-23T08:22:44;99470.0;;;27.1;51.6
28456;BME280;15682;56.742;38.866;2022-07-23T08:24:39;99470.0;;;27.1;51.6
28456;BME280;15682;56.742;38.866;2022-07-23T08:26:40;99470.0;;;27.1;50.9
28456;BME280;15682;56.742;38.866;2022-07-23T08:28:40;99470.0;;;27.1;49.7
28456;BME280;15682;56.742;38.866;2022-07-23T08:30:44;99470.0;;;27.2;50.1
28456;BME280;15682;56.742;38.866;2022-07-23T08:32:57;99470.0;;;27.2;49.6
28456;BME280;15682;56.742;38.866;2022-07-23T08:34:42;99470.0;;;27.3;49.6
28456;BME280;15682;56.742;38.866;2022-07-23T08:36:43;99470.0;;;27.2;49.0
28456;BME280;15682;56.742;38.866;2022-07-23T08:38:44;99470.0;;;27.2;49.0
28456;BME280;15682;56.742;38.866;2022-07-23T08:40:46;99470.0;;;27.3;48.0
28456;BME280;15682;56.742;38.866;2022-07-23T08:42:48;99470.0;;;27.6;48.7
28456;BME280;15682;56.742;38.866;2022-07-23T08:44:46;99470.0;;;27.6;48.1
28456;BME280;15682;56.742;38.866;2022-07-23T08:46:46;99470.0;;;27.9;48.1
28456;BME280;15682;56.742;38.866;2022-07-23T08:48:48;99470.0;;;27.9;48.1
28456;BME280;15682;56.742;38.866;2022-07-23T08:50:50;99470.0;;;28.1;48.6
28456;BME280;15682;56.742;38.866;2022-07-23T08:52:49;99470.0;;;28.3;48.1
28456;BME280;15682;56.742;38.866;2022-07-23T08:54:49;99470.0;;;28.3;48.0
28456;BME280;15682;56.742;38.866;2022-07-23T08:56:50;99470.0;;;28.2;48.0
28456;BME280;15682;56.742;38.866;2022-07-23T08:58:50;99470.0;;;28.3;48.0
28456;BME280;15682;56.742;38.866;2022-07-23T09:00:51;99470.0;;;28.4;48.0
28456;BME280;15682;56.742;38.866;2022-07-23T09:02:51;99470.0;;;28.7;48.0
28456;BME280;15682;56.742;38.866;2022-07-23T09:04:52;99460.0;;;28.7;48.3
28456;BME280;15682;56.742;38.866;2022-07-23T09:06:53;99460.0;;;28.4;47.0
28456;BME280;15682;56.742;38.866;2022-07-23T09:08:53;99460.0;;;28.4;47.0
28456;BME280;15682;56.742;38.866;2022-07-23T09:10:56;99460.0;;;28.5;47.1
28456;BME280;15682;56.742;38.866;2022-07-23T09:12:55;99460.0;;;28.7;47.7
28456;BME280;15682;56.742;38.866;2022-07-23T09:14:56;99460.0;;;28.8;46.8
28456;BME280;15682;56.742;38.866;2022-07-23T09:16:56;99460.0;;;28.9;46.8
28456;BME280;15682;56.742;38.866;2022-07-23T09:18:58;99460.0;;;29.3;46.8
28456;BME280;15682;56.742;38.866;2022-07-23T09:22:58;99460.0;;;29.6;48.8
28456;BME280;15682;56.742;38.866;2022-07-23T09:25:04;99460.0;;;29.9;48.8
28456;BME280;15682;56.742;38.866;2022-07-23T09:26:59;99460.0;;;29.9;48.8
28456;BME280;15682;56.742;38.866;2022-07-23T09:29:03;99460.0;;;29.9;48.6
28456;BME280;15682;56.742;38.866;2022-07-23T09:31:01;99450.0;;;29.8;48.6
28456;BME280;15682;56.742;38.866;2022-07-23T09:33:06;99450.0;;;29.8;48.6
28456;BME280;15682;56.742;38.866;2022-07-23T09:35:02;99450.0;;;29.6;47.8
28456;BME280;15682;56.742;38.866;2022-07-23T09:37:10;99450.0;;;29.5;50.0
28456;BME280;15682;56.742;38.866;2022-07-23T09:39:04;99450.0;;;29.5;50.0
28456;BME280;15682;56.742;38.866;2022-07-23T09:41:06;99450.0;;;29.6;49.8
28456;BME280;15682;56.742;38.866;2022-07-23T09:43:04;99450.0;;;29.7;49.5
28456;BME280;15682;56.742;38.866;2022-07-23T09:45:10;99450.0;;;29.9;49.5
28456;BME280;15682;56.742;38.866;2022-07-23T09:47:07;99450.0;;;29.7;49.5
28456;BME280;15682;56.742;38.866;2022-07-23T09:49:14;99450.0;;;29.7;48.9
28456;BME280;15682;56.742;38.866;2022-07-23T09:51:07;99450.0;;;29.7;48.9
28456;BME280;15682;56.742;38.866;2022-07-23T09:53:08;99450.0;;;29.8;48.0
28456;BME280;15682;56.742;38.866;2022-07-23T09:55:09;99450.0;;;29.5;49.2
28456;BME280;15682;56.742;38.866;2022-07-23T09:57:11;99450.0;;;29.7;48.6
28456;BME280;15682;56.742;38.866;2022-07-23T09:59:10;99450.0;;;29.7;49.2
28456;BME280;15682;56.742;38.866;2022-07-23T10:01:11;99440.0;;;29.5;48.6
28456;BME280;15682;56.742;38.866;2022-07-23T10:03:12;99440.0;;;29.6;48.7
28456;BME280;15682;56.742;38.866;2022-07-23T10:05:12;99440.0;;;29.4;48.7
28456;BME280;15682;56.742;38.866;2022-07-23T10:07:13;99440.0;;;29.3;48.7
28456;BME280;15682;56.742;38.866;2022-07-23T10:09:16;99440.0;;;28.9;48.7
28456;BME280;15682;56.742;38.866;2022-07-23T10:11:14;99440.0;;;28.8;49.3
28456;BME280;15682;56.742;38.866;2022-07-23T10:13:14;99440.0;;;28.6;50.4
28456;BME280;15682;56.742;38.866;2022-07-23T10:15:15;99440.0;;;28.8;50.4
28456;BME280;15682;56.742;38.866;2022-07-23T10:17:16;99440.0;;;29.1;49.8
28456;BME280;15682;56.742;38.866;2022-07-23T10:19:17;99440.0;;;29.2;48.9
28456;BME280;15682;56.742;38.866;2022-07-23T10:21:21;99440.0;;;29.1;48.9
28456;BME280;15682;56.742;38.866;2022-07-23T10:23:25;99440.0;;;29.1;48.9
28456;BME280;15682;56.742;38.866;2022-07-23T10:25:24;99440.0;;;29.2;48.9
28456;BME280;15682;56.742;38.866;2022-07-23T10:27:42;99440.0;;;29.2;49.6
28456;BME280;15682;56.742;38.866;2022-07-23T10:29:26;99440.0;;;28.9;49.6
28456;BME280;15682;56.742;38.866;2022-07-23T10:31:28;99440.0;;;29.0;49.6
28456;BME280;15682;56.742;38.866;2022-07-23T10:33:30;99430.0;;;28.7;50.0
28456;BME280;15682;56.742;38.866;2022-07-23T10:35:31;99420.0;;;29.0;50.0
28456;BME280;15682;56.742;38.866;2022-07-23T10:37:25;99420.0;;;29.0;50.0
28456;BME280;15682;56.742;38.866;2022-07-23T10:39:24;99420.0;;;29.0;50.0
28456;BME280;15682;56.742;38.866;2022-07-23T10:41:32;99420.0;;;28.7;50.0